Roscommon, MI (48653)

8:13 AM EDT on April 21, 2015 (GMT -0400)
Higgins Lake Point Detroit | | Change Station
CLOSE
Current Station
Personal Weather Station
Location: Roscommon, MI
Elevation: 1165 ft
Nearby Weather Stations

Elev 1165 ft 44.47 °N, 84.71 °W | Updated 2 seconds ago

Overcast
Overcast
35.8 °F
Feels Like 36 °F
N
1.8
Wind Variable Wind from SW
Gusts 6.5 mph

Today
High -- | Low -- °F
--% Chance of Precip.
Yesterday
High -- | Low -- °F
Precip. -- in
6:45 AM 8:30 PM
Waxing Crescent, 10% visible
Pressure 29.42 in
Visibility 10.0 miles
Clouds Mostly Cloudy 1300 ft
Mostly Cloudy 1900 ft
Overcast 8500 ft
Windchill 36 °F
Dew Point 31 °F
Humidity 83%
Rainfall 0.00 in
Snow Depth Not available.
UV 0 out of 12
Pollen 7.90 out of 12
Air Quality Not available.
Flu Activity Regional
SPECI KHTL 211208Z AUTO 21012G19KT 10SM BKN013 BKN019 OVC085 02/01 A2942 RMK AO2 T00220006

More Conditions Fewer Conditions

Pressure 29.42 in
Visibility 10.0 miles
Clouds Mostly Cloudy 1300 ft
Mostly Cloudy 1900 ft
Overcast 8500 ft
Windchill 36 °F
Dew Point 31 °F
Humidity 83%
Rainfall 0.00 in
Snow Depth Not available.
UV 0 out of 12
Pollen 7.90 out of 12
Air Quality Not available.
Flu Activity Regional
SPECI KHTL 211208Z AUTO 21012G19KT 10SM BKN013 BKN019 OVC085 02/01 A2942 RMK AO2 T00220006

More Conditions Fewer Conditions

Nowcast | as of 8:00 am EDT on April 21, 2015

At 9 am...showers likely. Temperature 39. Southwest winds 12 mph. At 11 am...mostly cloudy. Scattered showers. Temperature 41. Southwest winds 13 mph. At 1 PM...numerous showers. Temperature 43. Southwest winds 15 mph. At 3 PM...numerous showers. Temperature 44. West winds 15 mph.

×

10-Day Weather Forecast

Almanac

Astronomy

Apr. 21, 2015 Rise Set
Actual Time
Civil Twilight
Nautical Twilight
Astronomical Twilight
Moon
Length of Visible Light
Length of Day
Tomorrow will be .
, % of the Moon is Illuminated

Today's Extremes

State Highs State Lows

Community

WunderPhotos

Upload Photos

1,815,351 photos uploaded!

WunderBlogs® & News

Nearby

Air Quality

  Air Quality AQ Index Pollutant
Not available.

Snow Depth

Station Depth Elevation

Earthquake Activity

City Distance Mag. Time & Date
Minimum magnitude displayed is 2.5.

Coastal Water Temperatures

Place Temperature

Stations

Nearby Weather Stations

Station Location Temp. Windchill Dew Point Humidity Wind Precip. Elev Updated Type